sensor_id;sensor_type;location;lat;lon;timestamp;P1;durP1;ratioP1;P2;durP2;ratioP2
6292;SDS011;3179;54.350;10.102;2023-08-08T00:00:52;6.43;;;2.47;;
6292;SDS011;3179;54.350;10.102;2023-08-08T00:03:19;7.80;;;2.40;;
6292;SDS011;3179;54.350;10.102;2023-08-08T00:05:45;8.10;;;2.53;;
6292;SDS011;3179;54.350;10.102;2023-08-08T00:08:12;5.90;;;2.27;;
6292;SDS011;3179;54.350;10.102;2023-08-08T00:10:39;9.67;;;2.20;;
6292;SDS011;3179;54.350;10.102;2023-08-08T00:13:07;6.60;;;2.10;;
6292;SDS011;3179;54.350;10.102;2023-08-08T00:15:34;5.00;;;1.90;;
6292;SDS011;3179;54.350;10.102;2023-08-08T00:18:01;3.13;;;2.03;;
6292;SDS011;3179;54.350;10.102;2023-08-08T00:20:28;7.53;;;2.50;;
6292;SDS011;3179;54.350;10.102;2023-08-08T00:22:54;7.50;;;2.57;;
6292;SDS011;3179;54.350;10.102;2023-08-08T00:25:21;8.50;;;2.53;;
6292;SDS011;3179;54.350;10.102;2023-08-08T00:27:49;5.73;;;3.00;;
6292;SDS011;3179;54.350;10.102;2023-08-08T00:30:17;6.53;;;2.57;;
6292;SDS011;3179;54.350;10.102;2023-08-08T00:32:44;5.67;;;2.03;;
6292;SDS011;3179;54.350;10.102;2023-08-08T00:35:11;5.53;;;2.30;;
6292;SDS011;3179;54.350;10.102;2023-08-08T00:37:38;3.50;;;1.70;;
6292;SDS011;3179;54.350;10.102;2023-08-08T00:40:05;4.67;;;2.47;;
6292;SDS011;3179;54.350;10.102;2023-08-08T00:42:32;7.70;;;2.67;;
6292;SDS011;3179;54.350;10.102;2023-08-08T00:44:59;8.13;;;2.13;;
6292;SDS011;3179;54.350;10.102;2023-08-08T00:47:30;4.23;;;1.83;;
6292;SDS011;3179;54.350;10.102;2023-08-08T00:49:57;10.20;;;2.40;;
6292;SDS011;3179;54.350;10.102;2023-08-08T00:52:26;6.70;;;1.87;;
6292;SDS011;3179;54.350;10.102;2023-08-08T00:54:53;4.80;;;1.83;;
6292;SDS011;3179;54.350;10.102;2023-08-08T00:57:20;2.93;;;1.70;;
6292;SDS011;3179;54.350;10.102;2023-08-08T00:59:47;6.93;;;2.33;;
6292;SDS011;3179;54.350;10.102;2023-08-08T01:02:13;3.07;;;2.10;;
6292;SDS011;3179;54.350;10.102;2023-08-08T01:04:42;4.83;;;2.20;;
6292;SDS011;3179;54.350;10.102;2023-08-08T01:07:12;6.77;;;2.10;;
6292;SDS011;3179;54.350;10.102;2023-08-08T01:09:48;6.73;;;2.40;;
6292;SDS011;3179;54.350;10.102;2023-08-08T01:12:21;10.40;;;2.40;;
6292;SDS011;3179;54.350;10.102;2023-08-08T01:14:51;4.13;;;2.20;;
6292;SDS011;3179;54.350;10.102;2023-08-08T01:17:18;5.17;;;2.00;;
6292;SDS011;3179;54.350;10.102;2023-08-08T01:19:49;3.73;;;1.87;;
6292;SDS011;3179;54.350;10.102;2023-08-08T01:22:20;5.87;;;2.23;;
6292;SDS011;3179;54.350;10.102;2023-08-08T01:24:52;3.50;;;1.90;;
6292;SDS011;3179;54.350;10.102;2023-08-08T01:27:20;3.30;;;1.70;;
6292;SDS011;3179;54.350;10.102;2023-08-08T01:29:47;8.23;;;2.37;;
6292;SDS011;3179;54.350;10.102;2023-08-08T01:32:14;5.43;;;2.50;;
6292;SDS011;3179;54.350;10.102;2023-08-08T01:34:41;3.50;;;1.77;;
6292;SDS011;3179;54.350;10.102;2023-08-08T01:37:09;3.53;;;1.93;;
6292;SDS011;3179;54.350;10.102;2023-08-08T01:39:39;8.00;;;2.50;;
6292;SDS011;3179;54.350;10.102;2023-08-08T01:42:09;4.23;;;2.10;;
6292;SDS011;3179;54.350;10.102;2023-08-08T01:44:38;5.63;;;1.87;;
6292;SDS011;3179;54.350;10.102;2023-08-08T01:47:07;5.03;;;2.03;;
6292;SDS011;3179;54.350;10.102;2023-08-08T01:49:33;3.00;;;1.30;;
6292;SDS011;3179;54.350;10.102;2023-08-08T01:52:00;8.13;;;1.83;;
6292;SDS011;3179;54.350;10.102;2023-08-08T01:54:27;6.47;;;1.77;;
6292;SDS011;3179;54.350;10.102;2023-08-08T01:56:54;8.10;;;2.30;;
6292;SDS011;3179;54.350;10.102;2023-08-08T01:59:22;6.50;;;2.77;;
6292;SDS011;3179;54.350;10.102;2023-08-08T02:01:49;6.87;;;1.90;;
6292;SDS011;3179;54.350;10.102;2023-08-08T02:04:15;2.77;;;1.50;;
6292;SDS011;3179;54.350;10.102;2023-08-08T02:06:42;4.03;;;1.77;;
6292;SDS011;3179;54.350;10.102;2023-08-08T02:09:09;6.80;;;1.80;;
6292;SDS011;3179;54.350;10.102;2023-08-08T02:11:36;3.77;;;2.20;;
6292;SDS011;3179;54.350;10.102;2023-08-08T02:14:03;6.23;;;2.17;;
6292;SDS011;3179;54.350;10.102;2023-08-08T02:16:31;4.80;;;2.13;;
6292;SDS011;3179;54.350;10.102;2023-08-08T02:18:57;6.73;;;2.27;;
6292;SDS011;3179;54.350;10.102;2023-08-08T02:21:24;3.97;;;1.50;;
6292;SDS011;3179;54.350;10.102;2023-08-08T02:23:51;3.70;;;1.70;;
6292;SDS011;3179;54.350;10.102;2023-08-08T02:26:18;4.73;;;2.00;;
6292;SDS011;3179;54.350;10.102;2023-08-08T02:28:44;8.27;;;1.90;;
6292;SDS011;3179;54.350;10.102;2023-08-08T02:31:11;4.27;;;1.83;;
6292;SDS011;3179;54.350;10.102;2023-08-08T02:33:41;6.90;;;2.20;;
6292;SDS011;3179;54.350;10.102;2023-08-08T02:36:07;8.17;;;2.50;;
6292;SDS011;3179;54.350;10.102;2023-08-08T02:38:34;6.40;;;2.10;;
6292;SDS011;3179;54.350;10.102;2023-08-08T02:41:01;4.53;;;2.10;;
6292;SDS011;3179;54.350;10.102;2023-08-08T02:43:28;5.10;;;2.20;;
6292;SDS011;3179;54.350;10.102;2023-08-08T02:45:54;4.03;;;2.10;;
6292;SDS011;3179;54.350;10.102;2023-08-08T02:48:21;3.60;;;2.40;;
6292;SDS011;3179;54.350;10.102;2023-08-08T02:50:49;5.00;;;2.10;;
6292;SDS011;3179;54.350;10.102;2023-08-08T02:53:16;4.80;;;1.63;;
6292;SDS011;3179;54.350;10.102;2023-08-08T02:55:43;5.43;;;2.40;;
6292;SDS011;3179;54.350;10.102;2023-08-08T02:58:09;4.33;;;1.83;;
6292;SDS011;3179;54.350;10.102;2023-08-08T03:00:36;3.97;;;2.03;;
6292;SDS011;3179;54.350;10.102;2023-08-08T03:03:03;3.30;;;2.03;;
6292;SDS011;3179;54.350;10.102;2023-08-08T03:05:30;5.63;;;1.97;;
6292;SDS011;3179;54.350;10.102;2023-08-08T03:07:58;4.53;;;1.80;;
6292;SDS011;3179;54.350;10.102;2023-08-08T03:10:25;7.53;;;2.30;;
6292;SDS011;3179;54.350;10.102;2023-08-08T03:12:51;4.40;;;2.20;;
6292;SDS011;3179;54.350;10.102;2023-08-08T03:15:18;5.23;;;1.90;;
6292;SDS011;3179;54.350;10.102;2023-08-08T03:17:45;2.93;;;1.37;;
6292;SDS011;3179;54.350;10.102;2023-08-08T03:20:12;2.60;;;1.57;;
6292;SDS011;3179;54.350;10.102;2023-08-08T03:22:38;5.50;;;1.73;;
6292;SDS011;3179;54.350;10.102;2023-08-08T03:25:07;3.80;;;1.87;;
6292;SDS011;3179;54.350;10.102;2023-08-08T03:27:35;6.00;;;1.93;;
6292;SDS011;3179;54.350;10.102;2023-08-08T03:30:01;7.27;;;1.97;;
6292;SDS011;3179;54.350;10.102;2023-08-08T03:32:28;7.60;;;2.23;;
6292;SDS011;3179;54.350;10.102;2023-08-08T03:34:55;2.93;;;1.43;;
6292;SDS011;3179;54.350;10.102;2023-08-08T03:37:22;4.13;;;1.60;;
6292;SDS011;3179;54.350;10.102;2023-08-08T03:39:49;4.17;;;1.70;;
6292;SDS011;3179;54.350;10.102;2023-08-08T03:42:17;3.03;;;1.50;;
6292;SDS011;3179;54.350;10.102;2023-08-08T03:44:44;3.33;;;1.40;;
6292;SDS011;3179;54.350;10.102;2023-08-08T03:47:11;5.83;;;1.60;;
6292;SDS011;3179;54.350;10.102;2023-08-08T03:49:38;4.10;;;1.77;;
6292;SDS011;3179;54.350;10.102;2023-08-08T03:52:05;3.73;;;1.67;;
6292;SDS011;3179;54.350;10.102;2023-08-08T03:54:32;4.60;;;1.40;;
6292;SDS011;3179;54.350;10.102;2023-08-08T03:56:59;4.33;;;1.70;;
6292;SDS011;3179;54.350;10.102;2023-08-08T03:59:27;6.67;;;2.47;;
6292;SDS011;3179;54.350;10.102;2023-08-08T04:01:54;4.90;;;1.50;;
6292;SDS011;3179;54.350;10.102;2023-08-08T04:04:20;5.03;;;1.57;;
6292;SDS011;3179;54.350;10.102;2023-08-08T04:06:47;6.23;;;2.30;;
6292;SDS011;3179;54.350;10.102;2023-08-08T04:09:14;7.90;;;1.50;;
6292;SDS011;3179;54.350;10.102;2023-08-08T04:11:41;7.20;;;1.60;;
6292;SDS011;3179;54.350;10.102;2023-08-08T04:14:07;6.53;;;1.90;;
6292;SDS011;3179;54.350;10.102;2023-08-08T04:16:36;3.93;;;1.33;;
6292;SDS011;3179;54.350;10.102;2023-08-08T04:19:02;2.17;;;1.43;;
6292;SDS011;3179;54.350;10.102;2023-08-08T04:21:29;2.97;;;0.90;;
6292;SDS011;3179;54.350;10.102;2023-08-08T04:23:57;3.53;;;1.37;;
6292;SDS011;3179;54.350;10.102;2023-08-08T04:26:24;3.43;;;1.30;;
6292;SDS011;3179;54.350;10.102;2023-08-08T04:28:51;2.73;;;1.53;;
6292;SDS011;3179;54.350;10.102;2023-08-08T04:31:18;2.50;;;1.33;;
6292;SDS011;3179;54.350;10.102;2023-08-08T04:33:46;5.90;;;1.70;;
6292;SDS011;3179;54.350;10.102;2023-08-08T04:36:13;4.83;;;1.57;;
6292;SDS011;3179;54.350;10.102;2023-08-08T04:38:39;10.73;;;1.77;;
6292;SDS011;3179;54.350;10.102;2023-08-08T04:41:06;4.83;;;1.90;;
6292;SDS011;3179;54.350;10.102;2023-08-08T04:43:33;3.43;;;1.10;;
6292;SDS011;3179;54.350;10.102;2023-08-08T04:46:00;3.50;;;1.30;;
6292;SDS011;3179;54.350;10.102;2023-08-08T04:48:26;2.90;;;1.53;;
6292;SDS011;3179;54.350;10.102;2023-08-08T04:50:54;9.53;;;1.97;;
6292;SDS011;3179;54.350;10.102;2023-08-08T04:53:21;3.37;;;1.47;;
6292;SDS011;3179;54.350;10.102;2023-08-08T04:55:48;5.30;;;1.77;;
6292;SDS011;3179;54.350;10.102;2023-08-08T04:58:15;4.10;;;1.40;;
6292;SDS011;3179;54.350;10.102;2023-08-08T05:00:41;3.37;;;1.10;;
6292;SDS011;3179;54.350;10.102;2023-08-08T05:03:08;3.20;;;1.30;;
6292;SDS011;3179;54.350;10.102;2023-08-08T05:05:35;5.30;;;1.40;;
6292;SDS011;3179;54.350;10.102;2023-08-08T05:08:03;4.57;;;1.80;;
6292;SDS011;3179;54.350;10.102;2023-08-08T05:10:30;1.97;;;1.30;;
6292;SDS011;3179;54.350;10.102;2023-08-08T05:12:57;2.30;;;1.20;;
6292;SDS011;3179;54.350;10.102;2023-08-08T05:15:24;2.03;;;1.20;;
6292;SDS011;3179;54.350;10.102;2023-08-08T05:17:50;5.00;;;1.43;;
6292;SDS011;3179;54.350;10.102;2023-08-08T05:20:19;4.03;;;1.30;;
6292;SDS011;3179;54.350;10.102;2023-08-08T05:22:46;7.20;;;1.60;;
6292;SDS011;3179;54.350;10.102;2023-08-08T05:25:14;3.53;;;1.13;;
6292;SDS011;3179;54.350;10.102;2023-08-08T05:27:41;3.30;;;1.53;;
6292;SDS011;3179;54.350;10.102;2023-08-08T05:30:08;5.87;;;1.70;;
6292;SDS011;3179;54.350;10.102;2023-08-08T05:32:35;7.43;;;1.60;;
6292;SDS011;3179;54.350;10.102;2023-08-08T05:35:02;5.30;;;1.80;;
6292;SDS011;3179;54.350;10.102;2023-08-08T05:37:30;4.80;;;1.40;;
6292;SDS011;3179;54.350;10.102;2023-08-08T05:39:57;2.70;;;1.10;;
6292;SDS011;3179;54.350;10.102;2023-08-08T05:42:25;4.93;;;1.33;;
6292;SDS011;3179;54.350;10.102;2023-08-08T05:44:52;4.30;;;1.63;;
6292;SDS011;3179;54.350;10.102;2023-08-08T05:47:18;2.80;;;1.43;;
6292;SDS011;3179;54.350;10.102;2023-08-08T05:49:45;2.07;;;1.30;;
6292;SDS011;3179;54.350;10.102;2023-08-08T05:52:12;4.87;;;1.90;;
6292;SDS011;3179;54.350;10.102;2023-08-08T05:54:38;3.03;;;1.30;;
6292;SDS011;3179;54.350;10.102;2023-08-08T05:57:05;3.60;;;1.50;;
6292;SDS011;3179;54.350;10.102;2023-08-08T05:59:34;3.03;;;1.40;;
6292;SDS011;3179;54.350;10.102;2023-08-08T06:02:01;3.63;;;1.47;;
6292;SDS011;3179;54.350;10.102;2023-08-08T06:04:27;2.10;;;1.20;;
6292;SDS011;3179;54.350;10.102;2023-08-08T06:06:54;10.37;;;1.57;;
6292;SDS011;3179;54.350;10.102;2023-08-08T06:09:21;4.17;;;1.37;;
6292;SDS011;3179;54.350;10.102;2023-08-08T06:11:48;4.97;;;1.17;;
6292;SDS011;3179;54.350;10.102;2023-08-08T06:14:14;7.53;;;1.87;;
6292;SDS011;3179;54.350;10.102;2023-08-08T06:16:43;5.30;;;1.40;;
6292;SDS011;3179;54.350;10.102;2023-08-08T06:19:11;3.60;;;1.20;;
6292;SDS011;3179;54.350;10.102;2023-08-08T06:21:40;2.50;;;1.30;;
6292;SDS011;3179;54.350;10.102;2023-08-08T06:24:06;1.73;;;1.13;;
6292;SDS011;3179;54.350;10.102;2023-08-08T06:26:33;3.70;;;1.20;;
6292;SDS011;3179;54.350;10.102;2023-08-08T06:29:00;5.00;;;2.23;;
6292;SDS011;3179;54.350;10.102;2023-08-08T06:31:27;3.50;;;1.53;;
6292;SDS011;3179;54.350;10.102;2023-08-08T06:33:55;4.80;;;2.00;;
6292;SDS011;3179;54.350;10.102;2023-08-08T06:36:22;4.37;;;1.10;;
6292;SDS011;3179;54.350;10.102;2023-08-08T06:38:48;3.50;;;1.60;;
6292;SDS011;3179;54.350;10.102;2023-08-08T06:41:15;4.17;;;1.53;;
6292;SDS011;3179;54.350;10.102;2023-08-08T06:43:42;3.97;;;1.03;;
6292;SDS011;3179;54.350;10.102;2023-08-08T06:46:09;5.57;;;1.53;;
6292;SDS011;3179;54.350;10.102;2023-08-08T06:48:35;8.20;;;1.60;;
6292;SDS011;3179;54.350;10.102;2023-08-08T06:51:03;5.70;;;1.63;;
6292;SDS011;3179;54.350;10.102;2023-08-08T06:53:30;7.03;;;1.73;;
6292;SDS011;3179;54.350;10.102;2023-08-08T06:55:57;4.10;;;1.90;;
6292;SDS011;3179;54.350;10.102;2023-08-08T06:58:24;5.93;;;2.20;;
6292;SDS011;3179;54.350;10.102;2023-08-08T07:00:51;3.00;;;1.50;;
6292;SDS011;3179;54.350;10.102;2023-08-08T07:03:17;4.80;;;1.80;;
6292;SDS011;3179;54.350;10.102;2023-08-08T07:05:44;3.30;;;1.57;;
6292;SDS011;3179;54.350;10.102;2023-08-08T07:08:13;5.60;;;1.70;;
6292;SDS011;3179;54.350;10.102;2023-08-08T07:10:40;5.10;;;1.70;;
6292;SDS011;3179;54.350;10.102;2023-08-08T07:13:07;5.17;;;1.30;;
6292;SDS011;3179;54.350;10.102;2023-08-08T07:15:34;2.70;;;1.43;;
6292;SDS011;3179;54.350;10.102;2023-08-08T07:18:02;3.03;;;1.27;;
6292;SDS011;3179;54.350;10.102;2023-08-08T07:20:29;5.10;;;1.43;;
6292;SDS011;3179;54.350;10.102;2023-08-08T07:22:56;7.13;;;1.87;;
6292;SDS011;3179;54.350;10.102;2023-08-08T07:25:26;2.57;;;1.40;;
6292;SDS011;3179;54.350;10.102;2023-08-08T07:27:53;5.80;;;2.10;;
6292;SDS011;3179;54.350;10.102;2023-08-08T07:30:19;4.60;;;1.70;;
6292;SDS011;3179;54.350;10.102;2023-08-08T07:32:46;6.50;;;1.70;;
6292;SDS011;3179;54.350;10.102;2023-08-08T07:35:13;4.47;;;1.80;;
6292;SDS011;3179;54.350;10.102;2023-08-08T07:37:40;2.80;;;1.63;;
6292;SDS011;3179;54.350;10.102;2023-08-08T07:40:17;5.10;;;1.73;;
6292;SDS011;3179;54.350;10.102;2023-08-08T07:42:46;6.50;;;2.47;;
6292;SDS011;3179;54.350;10.102;2023-08-08T07:45:14;3.03;;;1.40;;
6292;SDS011;3179;54.350;10.102;2023-08-08T07:47:41;4.23;;;1.53;;
6292;SDS011;3179;54.350;10.102;2023-08-08T07:50:08;7.67;;;1.80;;
6292;SDS011;3179;54.350;10.102;2023-08-08T07:52:35;3.33;;;1.50;;
6292;SDS011;3179;54.350;10.102;2023-08-08T07:55:02;3.87;;;1.40;;
6292;SDS011;3179;54.350;10.102;2023-08-08T07:57:29;2.73;;;1.80;;
6292;SDS011;3179;54.350;10.102;2023-08-08T08:00:01;3.90;;;1.80;;
6292;SDS011;3179;54.350;10.102;2023-08-08T08:02:34;3.57;;;1.53;;
6292;SDS011;3179;54.350;10.102;2023-08-08T08:05:01;5.90;;;2.00;;
6292;SDS011;3179;54.350;10.102;2023-08-08T08:07:30;4.13;;;1.63;;
6292;SDS011;3179;54.350;10.102;2023-08-08T08:09:57;4.00;;;1.70;;
6292;SDS011;3179;54.350;10.102;2023-08-08T08:12:23;9.87;;;1.80;;
6292;SDS011;3179;54.350;10.102;2023-08-08T08:14:50;5.53;;;1.83;;
6292;SDS011;3179;54.350;10.102;2023-08-08T08:17:18;4.13;;;1.60;;
6292;SDS011;3179;54.350;10.102;2023-08-08T08:19:45;3.73;;;1.70;;
6292;SDS011;3179;54.350;10.102;2023-08-08T08:22:12;2.07;;;1.50;;
6292;SDS011;3179;54.350;10.102;2023-08-08T08:24:39;4.77;;;1.90;;
6292;SDS011;3179;54.350;10.102;2023-08-08T08:27:05;4.23;;;1.43;;
6292;SDS011;3179;54.350;10.102;2023-08-08T08:29:32;5.77;;;1.80;;
6292;SDS011;3179;54.350;10.102;2023-08-08T08:31:59;5.03;;;1.60;;
6292;SDS011;3179;54.350;10.102;2023-08-08T08:34:27;4.90;;;1.63;;
6292;SDS011;3179;54.350;10.102;2023-08-08T08:36:54;3.93;;;1.23;;
6292;SDS011;3179;54.350;10.102;2023-08-08T08:39:21;2.47;;;1.30;;
6292;SDS011;3179;54.350;10.102;2023-08-08T08:41:48;5.93;;;2.03;;
6292;SDS011;3179;54.350;10.102;2023-08-08T08:44:20;5.37;;;1.63;;
6292;SDS011;3179;54.350;10.102;2023-08-08T08:46:48;4.10;;;1.60;;
6292;SDS011;3179;54.350;10.102;2023-08-08T08:49:18;3.43;;;1.70;;
6292;SDS011;3179;54.350;10.102;2023-08-08T08:51:47;2.60;;;1.30;;
6292;SDS011;3179;54.350;10.102;2023-08-08T08:54:14;3.27;;;1.63;;
6292;SDS011;3179;54.350;10.102;2023-08-08T08:56:42;3.90;;;1.73;;
6292;SDS011;3179;54.350;10.102;2023-08-08T08:59:09;2.83;;;1.30;;
6292;SDS011;3179;54.350;10.102;2023-08-08T09:01:35;4.27;;;1.47;;
6292;SDS011;3179;54.350;10.102;2023-08-08T09:04:02;4.30;;;1.70;;
6292;SDS011;3179;54.350;10.102;2023-08-08T09:06:32;5.03;;;1.90;;
6292;SDS011;3179;54.350;10.102;2023-08-08T09:09:00;6.23;;;1.50;;
6292;SDS011;3179;54.350;10.102;2023-08-08T09:11:29;3.20;;;1.73;;
6292;SDS011;3179;54.350;10.102;2023-08-08T09:13:56;3.53;;;1.80;;
6292;SDS011;3179;54.350;10.102;2023-08-08T09:16:24;3.20;;;1.47;;
6292;SDS011;3179;54.350;10.102;2023-08-08T09:18:51;4.60;;;1.60;;
6292;SDS011;3179;54.350;10.102;2023-08-08T09:21:18;6.07;;;1.70;;
6292;SDS011;3179;54.350;10.102;2023-08-08T09:23:45;4.67;;;1.73;;
6292;SDS011;3179;54.350;10.102;2023-08-08T09:26:14;4.00;;;1.20;;
6292;SDS011;3179;54.350;10.102;2023-08-08T09:28:41;4.93;;;1.30;;
6292;SDS011;3179;54.350;10.102;2023-08-08T09:31:08;3.73;;;1.50;;
6292;SDS011;3179;54.350;10.102;2023-08-08T09:33:36;3.53;;;1.47;;
6292;SDS011;3179;54.350;10.102;2023-08-08T09:36:05;2.73;;;1.13;;
6292;SDS011;3179;54.350;10.102;2023-08-08T09:38:32;6.00;;;1.90;;
6292;SDS011;3179;54.350;10.102;2023-08-08T09:40:59;5.47;;;1.60;;
6292;SDS011;3179;54.350;10.102;2023-08-08T09:43:27;5.83;;;1.60;;
6292;SDS011;3179;54.350;10.102;2023-08-08T09:45:54;6.70;;;1.77;;
6292;SDS011;3179;54.350;10.102;2023-08-08T09:48:21;4.97;;;1.23;;
6292;SDS011;3179;54.350;10.102;2023-08-08T09:50:49;2.60;;;1.30;;
6292;SDS011;3179;54.350;10.102;2023-08-08T09:53:16;4.57;;;1.50;;
6292;SDS011;3179;54.350;10.102;2023-08-08T09:55:44;5.10;;;1.90;;
6292;SDS011;3179;54.350;10.102;2023-08-08T09:58:12;3.10;;;1.43;;
6292;SDS011;3179;54.350;10.102;2023-08-08T10:00:41;5.13;;;1.93;;
6292;SDS011;3179;54.350;10.102;2023-08-08T10:03:08;8.60;;;1.73;;
6292;SDS011;3179;54.350;10.102;2023-08-08T10:05:35;3.20;;;1.40;;
6292;SDS011;3179;54.350;10.102;2023-08-08T10:08:03;4.23;;;1.33;;
6292;SDS011;3179;54.350;10.102;2023-08-08T10:10:31;4.00;;;1.40;;
6292;SDS011;3179;54.350;10.102;2023-08-08T10:12:58;4.67;;;1.60;;
6292;SDS011;3179;54.350;10.102;2023-08-08T10:15:26;3.70;;;1.40;;
6292;SDS011;3179;54.350;10.102;2023-08-08T10:17:55;3.53;;;1.70;;
6292;SDS011;3179;54.350;10.102;2023-08-08T10:20:23;2.80;;;1.17;;
6292;SDS011;3179;54.350;10.102;2023-08-08T10:22:52;4.30;;;1.40;;
6292;SDS011;3179;54.350;10.102;2023-08-08T10:25:22;2.90;;;1.47;;
6292;SDS011;3179;54.350;10.102;2023-08-08T10:27:49;3.90;;;1.27;;
6292;SDS011;3179;54.350;10.102;2023-08-08T10:30:28;3.60;;;1.27;;
6292;SDS011;3179;54.350;10.102;2023-08-08T10:32:57;4.87;;;1.27;;
6292;SDS011;3179;54.350;10.102;2023-08-08T10:35:34;3.67;;;1.80;;
6292;SDS011;3179;54.350;10.102;2023-08-08T10:38:07;2.20;;;1.23;;
6292;SDS011;3179;54.350;10.102;2023-08-08T10:40:35;2.93;;;1.03;;
6292;SDS011;3179;54.350;10.102;2023-08-08T10:43:09;3.77;;;1.30;;
6292;SDS011;3179;54.350;10.102;2023-08-08T10:45:40;8.53;;;1.63;;
6292;SDS011;3179;54.350;10.102;2023-08-08T10:48:10;3.43;;;1.10;;
6292;SDS011;3179;54.350;10.102;2023-08-08T10:50:38;3.80;;;1.50;;
6292;SDS011;3179;54.350;10.102;2023-08-08T10:53:07;5.00;;;1.40;;
6292;SDS011;3179;54.350;10.102;2023-08-08T10:55:35;2.63;;;1.53;;
6292;SDS011;3179;54.350;10.102;2023-08-08T10:58:04;3.63;;;1.20;;
6292;SDS011;3179;54.350;10.102;2023-08-08T11:00:32;1.67;;;1.03;;
6292;SDS011;3179;54.350;10.102;2023-08-08T11:03:01;4.30;;;1.07;;
6292;SDS011;3179;54.350;10.102;2023-08-08T11:05:31;1.47;;;1.00;;
6292;SDS011;3179;54.350;10.102;2023-08-08T11:07:59;4.33;;;1.10;;
6292;SDS011;3179;54.350;10.102;2023-08-08T11:10:26;3.73;;;0.90;;
6292;SDS011;3179;54.350;10.102;2023-08-08T11:12:56;2.60;;;0.87;;
6292;SDS011;3179;54.350;10.102;2023-08-08T11:15:24;1.57;;;1.30;;
6292;SDS011;3179;54.350;10.102;2023-08-08T11:17:52;2.87;;;1.57;;
6292;SDS011;3179;54.350;10.102;2023-08-08T11:20:20;1.63;;;0.83;;
6292;SDS011;3179;54.350;10.102;2023-08-08T11:22:51;1.70;;;0.90;;
6292;SDS011;3179;54.350;10.102;2023-08-08T11:25:19;7.63;;;1.70;;
6292;SDS011;3179;54.350;10.102;2023-08-08T11:27:49;2.83;;;1.13;;
6292;SDS011;3179;54.350;10.102;2023-08-08T11:30:17;3.90;;;1.00;;
6292;SDS011;3179;54.350;10.102;2023-08-08T11:32:44;5.20;;;1.33;;
6292;SDS011;3179;54.350;10.102;2023-08-08T11:35:11;2.10;;;1.07;;
6292;SDS011;3179;54.350;10.102;2023-08-08T11:37:38;4.53;;;1.10;;
6292;SDS011;3179;54.350;10.102;2023-08-08T11:40:07;2.03;;;1.00;;
6292;SDS011;3179;54.350;10.102;2023-08-08T11:42:35;2.37;;;1.20;;
6292;SDS011;3179;54.350;10.102;2023-08-08T11:45:02;2.83;;;0.77;;
6292;SDS011;3179;54.350;10.102;2023-08-08T11:47:29;1.57;;;0.80;;
6292;SDS011;3179;54.350;10.102;2023-08-08T11:50:01;1.83;;;1.00;;
6292;SDS011;3179;54.350;10.102;2023-08-08T11:52:28;4.50;;;1.70;;
6292;SDS011;3179;54.350;10.102;2023-08-08T11:54:58;5.70;;;1.13;;
6292;SDS011;3179;54.350;10.102;2023-08-08T11:57:27;6.03;;;1.37;;
6292;SDS011;3179;54.350;10.102;2023-08-08T11:59:54;1.20;;;0.70;;
6292;SDS011;3179;54.350;10.102;2023-08-08T12:02:22;2.87;;;0.90;;
6292;SDS011;3179;54.350;10.102;2023-08-08T12:04:49;4.17;;;0.90;;
6292;SDS011;3179;54.350;10.102;2023-08-08T12:07:17;1.57;;;0.80;;
6292;SDS011;3179;54.350;10.102;2023-08-08T12:09:46;1.60;;;0.70;;
6292;SDS011;3179;54.350;10.102;2023-08-08T12:12:13;1.57;;;1.40;;
6292;SDS011;3179;54.350;10.102;2023-08-08T12:14:42;2.63;;;0.70;;
6292;SDS011;3179;54.350;10.102;2023-08-08T12:17:10;1.63;;;0.80;;
6292;SDS011;3179;54.350;10.102;2023-08-08T12:19:37;1.37;;;0.67;;
6292;SDS011;3179;54.350;10.102;2023-08-08T12:22:12;3.83;;;0.90;;
6292;SDS011;3179;54.350;10.102;2023-08-08T12:24:39;1.00;;;0.50;;
6292;SDS011;3179;54.350;10.102;2023-08-08T12:27:06;1.53;;;0.87;;
6292;SDS011;3179;54.350;10.102;2023-08-08T12:29:33;1.10;;;0.70;;
6292;SDS011;3179;54.350;10.102;2023-08-08T12:32:02;3.37;;;0.90;;
6292;SDS011;3179;54.350;10.102;2023-08-08T12:34:33;2.87;;;0.90;;
6292;SDS011;3179;54.350;10.102;2023-08-08T12:37:00;2.40;;;1.00;;
6292;SDS011;3179;54.350;10.102;2023-08-08T12:39:27;1.50;;;0.70;;
6292;SDS011;3179;54.350;10.102;2023-08-08T12:41:54;2.70;;;0.70;;
6292;SDS011;3179;54.350;10.102;2023-08-08T12:44:21;5.67;;;0.93;;
6292;SDS011;3179;54.350;10.102;2023-08-08T12:46:48;1.93;;;0.90;;
6292;SDS011;3179;54.350;10.102;2023-08-08T12:49:16;3.17;;;1.00;;
6292;SDS011;3179;54.350;10.102;2023-08-08T12:51:43;3.80;;;1.40;;
6292;SDS011;3179;54.350;10.102;2023-08-08T12:54:10;4.53;;;1.00;;
6292;SDS011;3179;54.350;10.102;2023-08-08T12:56:37;2.60;;;1.17;;
6292;SDS011;3179;54.350;10.102;2023-08-08T12:59:04;3.50;;;1.40;;
6292;SDS011;3179;54.350;10.102;2023-08-08T13:01:30;2.20;;;1.10;;
6292;SDS011;3179;54.350;10.102;2023-08-08T13:03:57;5.80;;;1.00;;
6292;SDS011;3179;54.350;10.102;2023-08-08T13:06:25;3.60;;;1.23;;
6292;SDS011;3179;54.350;10.102;2023-08-08T13:08:52;7.20;;;1.90;;
6292;SDS011;3179;54.350;10.102;2023-08-08T13:11:19;2.43;;;1.03;;
6292;SDS011;3179;54.350;10.102;2023-08-08T13:13:46;2.10;;;1.00;;
6292;SDS011;3179;54.350;10.102;2023-08-08T13:16:13;2.83;;;1.07;;
6292;SDS011;3179;54.350;10.102;2023-08-08T13:18:40;4.60;;;1.20;;
6292;SDS011;3179;54.350;10.102;2023-08-08T13:21:07;1.10;;;0.80;;
6292;SDS011;3179;54.350;10.102;2023-08-08T13:23:36;1.07;;;0.60;;
6292;SDS011;3179;54.350;10.102;2023-08-08T13:26:03;3.23;;;0.70;;
6292;SDS011;3179;54.350;10.102;2023-08-08T13:28:30;0.97;;;0.70;;
6292;SDS011;3179;54.350;10.102;2023-08-08T13:30:57;1.80;;;1.10;;
6292;SDS011;3179;54.350;10.102;2023-08-08T13:33:25;2.37;;;1.20;;
6292;SDS011;3179;54.350;10.102;2023-08-08T13:35:53;1.83;;;0.80;;
6292;SDS011;3179;54.350;10.102;2023-08-08T13:38:20;1.70;;;1.00;;
6292;SDS011;3179;54.350;10.102;2023-08-08T13:40:50;1.93;;;0.80;;
6292;SDS011;3179;54.350;10.102;2023-08-08T13:43:17;2.40;;;0.80;;
6292;SDS011;3179;54.350;10.102;2023-08-08T13:45:44;2.93;;;1.00;;
6292;SDS011;3179;54.350;10.102;2023-08-08T13:48:11;2.87;;;1.17;;
6292;SDS011;3179;54.350;10.102;2023-08-08T13:50:38;1.37;;;0.87;;
6292;SDS011;3179;54.350;10.102;2023-08-08T13:53:05;1.03;;;0.97;;
6292;SDS011;3179;54.350;10.102;2023-08-08T13:55:32;1.70;;;0.97;;
6292;SDS011;3179;54.350;10.102;2023-08-08T13:58:05;4.53;;;1.47;;
6292;SDS011;3179;54.350;10.102;2023-08-08T14:00:33;2.10;;;1.00;;
6292;SDS011;3179;54.350;10.102;2023-08-08T14:03:00;3.60;;;1.03;;
6292;SDS011;3179;54.350;10.102;2023-08-08T14:05:27;1.83;;;0.80;;
6292;SDS011;3179;54.350;10.102;2023-08-08T14:07:56;1.60;;;1.10;;
6292;SDS011;3179;54.350;10.102;2023-08-08T14:10:23;5.90;;;1.23;;
6292;SDS011;3179;54.350;10.102;2023-08-08T14:12:50;3.97;;;0.80;;
6292;SDS011;3179;54.350;10.102;2023-08-08T14:15:19;2.30;;;0.90;;
6292;SDS011;3179;54.350;10.102;2023-08-08T14:17:46;2.67;;;1.00;;
6292;SDS011;3179;54.350;10.102;2023-08-08T14:20:13;2.63;;;1.20;;
6292;SDS011;3179;54.350;10.102;2023-08-08T14:22:43;3.83;;;1.30;;
6292;SDS011;3179;54.350;10.102;2023-08-08T14:25:11;2.97;;;0.97;;
6292;SDS011;3179;54.350;10.102;2023-08-08T14:27:38;2.20;;;0.97;;
6292;SDS011;3179;54.350;10.102;2023-08-08T14:30:05;3.37;;;1.00;;
6292;SDS011;3179;54.350;10.102;2023-08-08T14:32:34;3.70;;;1.13;;
6292;SDS011;3179;54.350;10.102;2023-08-08T14:35:01;3.30;;;1.17;;
6292;SDS011;3179;54.350;10.102;2023-08-08T14:37:29;3.23;;;1.10;;
6292;SDS011;3179;54.350;10.102;2023-08-08T14:39:56;3.10;;;1.20;;
6292;SDS011;3179;54.350;10.102;2023-08-08T14:42:23;2.13;;;1.17;;
6292;SDS011;3179;54.350;10.102;2023-08-08T14:44:50;3.77;;;1.20;;
6292;SDS011;3179;54.350;10.102;2023-08-08T14:47:17;4.00;;;1.40;;
6292;SDS011;3179;54.350;10.102;2023-08-08T14:49:45;5.97;;;1.30;;
6292;SDS011;3179;54.350;10.102;2023-08-08T14:52:12;2.53;;;1.10;;
6292;SDS011;3179;54.350;10.102;2023-08-08T14:54:39;1.50;;;1.00;;
6292;SDS011;3179;54.350;10.102;2023-08-08T14:57:07;2.43;;;1.00;;
6292;SDS011;3179;54.350;10.102;2023-08-08T14:59:34;4.00;;;1.40;;
6292;SDS011;3179;54.350;10.102;2023-08-08T15:02:01;3.30;;;1.27;;